sensor_id;sensor_type;location;lat;lon;timestamp;temperature;humidity
29295;DHT22;16305;48.566;8.846;2022-09-09T00:04:34;14.70;99.90
29295;DHT22;16305;48.566;8.846;2022-09-09T00:07:13;14.70;99.90
29295;DHT22;16305;48.566;8.846;2022-09-09T00:09:45;14.80;99.90
29295;DHT22;16305;48.566;8.846;2022-09-09T00:12:15;14.80;99.90
29295;DHT22;16305;48.566;8.846;2022-09-09T00:14:54;14.80;99.90
29295;DHT22;16305;48.566;8.846;2022-09-09T00:17:35;14.80;99.90
29295;DHT22;16305;48.566;8.846;2022-09-09T00:23:16;14.90;99.90
29295;DHT22;16305;48.566;8.846;2022-09-09T00:26:04;14.90;99.90
29295;DHT22;16305;48.566;8.846;2022-09-09T00:28:39;14.90;99.90
29295;DHT22;16305;48.566;8.846;2022-09-09T00:31:23;15.00;99.90
29295;DHT22;16305;48.566;8.846;2022-09-09T00:33:50;15.00;99.90
29295;DHT22;16305;48.566;8.846;2022-09-09T00:36:22;15.00;99.90
29295;DHT22;16305;48.566;8.846;2022-09-09T00:38:52;15.00;99.90
29295;DHT22;16305;48.566;8.846;2022-09-09T00:41:56;15.00;99.90
29295;DHT22;16305;48.566;8.846;2022-09-09T00:44:24;15.00;99.90
29295;DHT22;16305;48.566;8.846;2022-09-09T00:55:54;14.90;99.90
29295;DHT22;16305;48.566;8.846;2022-09-09T00:58:21;14.80;99.90
29295;DHT22;16305;48.566;8.846;2022-09-09T01:00:52;14.70;99.90
29295;DHT22;16305;48.566;8.846;2022-09-09T01:11:26;14.30;99.90
29295;DHT22;16305;48.566;8.846;2022-09-09T01:14:20;14.30;99.90
29295;DHT22;16305;48.566;8.846;2022-09-09T01:16:53;14.30;99.90
29295;DHT22;16305;48.566;8.846;2022-09-09T01:19:35;14.20;99.90
29295;DHT22;16305;48.566;8.846;2022-09-09T01:22:12;14.20;99.90
29295;DHT22;16305;48.566;8.846;2022-09-09T01:27:43;14.10;99.90
29295;DHT22;16305;48.566;8.846;2022-09-09T01:30:13;14.20;99.90
29295;DHT22;16305;48.566;8.846;2022-09-09T01:32:45;14.20;99.90
29295;DHT22;16305;48.566;8.846;2022-09-09T01:38:12;14.10;99.90
29295;DHT22;16305;48.566;8.846;2022-09-09T01:40:38;14.00;99.90
29295;DHT22;16305;48.566;8.846;2022-09-09T01:43:04;14.00;99.90
29295;DHT22;16305;48.566;8.846;2022-09-09T01:45:30;13.70;99.90
29295;DHT22;16305;48.566;8.846;2022-09-09T01:47:56;13.40;99.90
29295;DHT22;16305;48.566;8.846;2022-09-09T01:50:22;13.40;99.90
29295;DHT22;16305;48.566;8.846;2022-09-09T01:52:53;13.50;99.90
29295;DHT22;16305;48.566;8.846;2022-09-09T01:55:28;13.40;99.90
29295;DHT22;16305;48.566;8.846;2022-09-09T01:58:11;13.40;99.90
29295;DHT22;16305;48.566;8.846;2022-09-09T02:00:45;13.40;99.90
29295;DHT22;16305;48.566;8.846;2022-09-09T02:03:23;13.50;99.90
29295;DHT22;16305;48.566;8.846;2022-09-09T02:08:29;13.50;99.90
29295;DHT22;16305;48.566;8.846;2022-09-09T02:13:35;13.40;99.90
29295;DHT22;16305;48.566;8.846;2022-09-09T02:16:13;13.40;99.90
29295;DHT22;16305;48.566;8.846;2022-09-09T02:19:06;13.40;99.90
29295;DHT22;16305;48.566;8.846;2022-09-09T02:21:33;13.30;99.90
29295;DHT22;16305;48.566;8.846;2022-09-09T02:24:03;13.00;99.90
29295;DHT22;16305;48.566;8.846;2022-09-09T02:26:32;13.00;99.90
29295;DHT22;16305;48.566;8.846;2022-09-09T02:29:00;13.00;99.90
29295;DHT22;16305;48.566;8.846;2022-09-09T02:31:27;13.10;99.90
29295;DHT22;16305;48.566;8.846;2022-09-09T02:33:56;13.20;99.90
29295;DHT22;16305;48.566;8.846;2022-09-09T02:36:24;13.30;99.90
29295;DHT22;16305;48.566;8.846;2022-09-09T02:38:52;13.30;99.90
29295;DHT22;16305;48.566;8.846;2022-09-09T02:41:32;13.40;99.90
29295;DHT22;16305;48.566;8.846;2022-09-09T02:43:59;13.50;99.90
29295;DHT22;16305;48.566;8.846;2022-09-09T02:49:21;13.40;99.90
29295;DHT22;16305;48.566;8.846;2022-09-09T02:52:04;13.30;99.90
29295;DHT22;16305;48.566;8.846;2022-09-09T02:54:35;13.20;99.90
29295;DHT22;16305;48.566;8.846;2022-09-09T02:57:19;13.10;99.90
29295;DHT22;16305;48.566;8.846;2022-09-09T02:59:47;13.00;99.90
29295;DHT22;16305;48.566;8.846;2022-09-09T03:02:13;12.90;99.90
29295;DHT22;16305;48.566;8.846;2022-09-09T03:04:39;12.90;99.90
29295;DHT22;16305;48.566;8.846;2022-09-09T03:07:05;12.80;99.90
29295;DHT22;16305;48.566;8.846;2022-09-09T03:09:31;12.80;99.90
29295;DHT22;16305;48.566;8.846;2022-09-09T03:12:00;12.90;99.90
29295;DHT22;16305;48.566;8.846;2022-09-09T03:14:25;12.90;99.90
29295;DHT22;16305;48.566;8.846;2022-09-09T03:16:51;12.90;99.90
29295;DHT22;16305;48.566;8.846;2022-09-09T03:19:17;12.90;99.90
29295;DHT22;16305;48.566;8.846;2022-09-09T03:21:44;12.80;99.90
29295;DHT22;16305;48.566;8.846;2022-09-09T03:24:10;12.80;99.90
29295;DHT22;16305;48.566;8.846;2022-09-09T03:26:36;12.90;99.90
29295;DHT22;16305;48.566;8.846;2022-09-09T03:29:03;12.90;99.90
29295;DHT22;16305;48.566;8.846;2022-09-09T03:31:32;13.00;99.90
29295;DHT22;16305;48.566;8.846;2022-09-09T03:33:57;13.00;99.90
29295;DHT22;16305;48.566;8.846;2022-09-09T03:36:24;13.00;99.90
29295;DHT22;16305;48.566;8.846;2022-09-09T03:38:51;13.00;99.90
29295;DHT22;16305;48.566;8.846;2022-09-09T03:41:17;13.00;99.90
29295;DHT22;16305;48.566;8.846;2022-09-09T03:43:43;12.90;99.90
29295;DHT22;16305;48.566;8.846;2022-09-09T03:46:09;12.90;99.90
29295;DHT22;16305;48.566;8.846;2022-09-09T03:48:35;12.90;99.90
29295;DHT22;16305;48.566;8.846;2022-09-09T03:51:00;12.90;99.90
29295;DHT22;16305;48.566;8.846;2022-09-09T03:53:27;12.80;99.90
29295;DHT22;16305;48.566;8.846;2022-09-09T03:55:54;12.80;99.90
29295;DHT22;16305;48.566;8.846;2022-09-09T03:58:22;12.80;99.90
29295;DHT22;16305;48.566;8.846;2022-09-09T04:01:01;12.80;99.90
29295;DHT22;16305;48.566;8.846;2022-09-09T04:03:27;12.80;99.90
29295;DHT22;16305;48.566;8.846;2022-09-09T04:05:53;12.80;99.90
29295;DHT22;16305;48.566;8.846;2022-09-09T04:08:20;12.80;99.90
29295;DHT22;16305;48.566;8.846;2022-09-09T04:10:47;12.90;99.90
29295;DHT22;16305;48.566;8.846;2022-09-09T04:13:14;12.90;99.90
29295;DHT22;16305;48.566;8.846;2022-09-09T04:15:42;13.00;99.90
29295;DHT22;16305;48.566;8.846;2022-09-09T04:18:08;13.00;99.90
29295;DHT22;16305;48.566;8.846;2022-09-09T04:20:34;13.00;99.90
29295;DHT22;16305;48.566;8.846;2022-09-09T04:23:00;13.10;99.90
29295;DHT22;16305;48.566;8.846;2022-09-09T04:25:26;13.20;99.90
29295;DHT22;16305;48.566;8.846;2022-09-09T04:27:56;13.30;99.90
29295;DHT22;16305;48.566;8.846;2022-09-09T04:30:22;13.30;99.90
29295;DHT22;16305;48.566;8.846;2022-09-09T04:32:47;13.30;99.90
29295;DHT22;16305;48.566;8.846;2022-09-09T04:35:13;13.30;99.90
29295;DHT22;16305;48.566;8.846;2022-09-09T04:37:38;13.40;99.90
29295;DHT22;16305;48.566;8.846;2022-09-09T04:40:05;13.40;99.90
29295;DHT22;16305;48.566;8.846;2022-09-09T04:42:35;13.30;99.90
29295;DHT22;16305;48.566;8.846;2022-09-09T04:45:01;13.30;99.90
29295;DHT22;16305;48.566;8.846;2022-09-09T04:47:27;13.20;99.90
29295;DHT22;16305;48.566;8.846;2022-09-09T04:49:52;13.30;99.90
29295;DHT22;16305;48.566;8.846;2022-09-09T04:52:20;13.20;99.90
29295;DHT22;16305;48.566;8.846;2022-09-09T04:54:45;13.20;99.90
29295;DHT22;16305;48.566;8.846;2022-09-09T04:57:11;13.10;99.90
29295;DHT22;16305;48.566;8.846;2022-09-09T04:59:36;13.10;99.90
29295;DHT22;16305;48.566;8.846;2022-09-09T05:02:02;13.20;99.90
29295;DHT22;16305;48.566;8.846;2022-09-09T05:04:29;13.20;99.90
29295;DHT22;16305;48.566;8.846;2022-09-09T05:06:55;13.40;99.90
29295;DHT22;16305;48.566;8.846;2022-09-09T05:09:20;13.40;99.90
29295;DHT22;16305;48.566;8.846;2022-09-09T05:11:46;13.30;99.90
29295;DHT22;16305;48.566;8.846;2022-09-09T05:14:11;13.20;99.90
29295;DHT22;16305;48.566;8.846;2022-09-09T05:16:37;13.20;99.90
29295;DHT22;16305;48.566;8.846;2022-09-09T05:19:03;13.20;99.90
29295;DHT22;16305;48.566;8.846;2022-09-09T05:21:29;13.10;99.90
29295;DHT22;16305;48.566;8.846;2022-09-09T05:23:56;13.20;99.90
29295;DHT22;16305;48.566;8.846;2022-09-09T05:26:22;13.10;99.90
29295;DHT22;16305;48.566;8.846;2022-09-09T05:28:48;13.20;99.90
29295;DHT22;16305;48.566;8.846;2022-09-09T05:31:16;13.20;99.90
29295;DHT22;16305;48.566;8.846;2022-09-09T05:33:43;13.10;99.90
29295;DHT22;16305;48.566;8.846;2022-09-09T05:36:16;13.20;99.90
29295;DHT22;16305;48.566;8.846;2022-09-09T05:38:42;13.20;99.90
29295;DHT22;16305;48.566;8.846;2022-09-09T05:41:08;13.30;99.90
29295;DHT22;16305;48.566;8.846;2022-09-09T05:43:36;13.30;99.90
29295;DHT22;16305;48.566;8.846;2022-09-09T05:48:41;13.50;99.90
29295;DHT22;16305;48.566;8.846;2022-09-09T05:51:10;13.60;99.90
29295;DHT22;16305;48.566;8.846;2022-09-09T05:53:38;13.50;99.90
29295;DHT22;16305;48.566;8.846;2022-09-09T05:58:31;13.60;99.90
29295;DHT22;16305;48.566;8.846;2022-09-09T06:01:08;13.60;99.90
29295;DHT22;16305;48.566;8.846;2022-09-09T06:03:39;13.70;99.90
29295;DHT22;16305;48.566;8.846;2022-09-09T06:06:07;13.80;99.90
29295;DHT22;16305;48.566;8.846;2022-09-09T06:08:34;14.00;99.90
29295;DHT22;16305;48.566;8.846;2022-09-09T06:11:08;14.10;99.90
29295;DHT22;16305;48.566;8.846;2022-09-09T06:13:34;14.20;99.90
29295;DHT22;16305;48.566;8.846;2022-09-09T06:16:00;14.10;99.90
29295;DHT22;16305;48.566;8.846;2022-09-09T06:18:26;14.20;99.90
29295;DHT22;16305;48.566;8.846;2022-09-09T06:21:00;14.20;99.90
29295;DHT22;16305;48.566;8.846;2022-09-09T06:23:27;14.20;99.90
29295;DHT22;16305;48.566;8.846;2022-09-09T06:26:09;14.30;99.90
29295;DHT22;16305;48.566;8.846;2022-09-09T06:28:35;14.30;99.90
29295;DHT22;16305;48.566;8.846;2022-09-09T06:31:04;14.40;99.90
29295;DHT22;16305;48.566;8.846;2022-09-09T06:33:35;14.40;99.90
29295;DHT22;16305;48.566;8.846;2022-09-09T06:36:05;14.40;99.90
29295;DHT22;16305;48.566;8.846;2022-09-09T06:38:31;14.30;99.90
29295;DHT22;16305;48.566;8.846;2022-09-09T06:40:58;14.30;99.90
29295;DHT22;16305;48.566;8.846;2022-09-09T06:43:25;14.20;99.90
29295;DHT22;16305;48.566;8.846;2022-09-09T06:46:05;14.20;99.90
29295;DHT22;16305;48.566;8.846;2022-09-09T06:48:31;14.20;99.90
29295;DHT22;16305;48.566;8.846;2022-09-09T06:53:37;14.40;99.90
29295;DHT22;16305;48.566;8.846;2022-09-09T06:56:21;14.50;99.90
29295;DHT22;16305;48.566;8.846;2022-09-09T06:58:49;14.70;99.90
29295;DHT22;16305;48.566;8.846;2022-09-09T07:01:20;14.80;99.90
29295;DHT22;16305;48.566;8.846;2022-09-09T07:03:48;14.80;99.90
29295;DHT22;16305;48.566;8.846;2022-09-09T07:06:20;14.80;99.90
29295;DHT22;16305;48.566;8.846;2022-09-09T07:08:50;14.80;99.90
29295;DHT22;16305;48.566;8.846;2022-09-09T07:11:16;14.80;99.90
29295;DHT22;16305;48.566;8.846;2022-09-09T07:13:41;14.90;99.90
29295;DHT22;16305;48.566;8.846;2022-09-09T07:16:13;14.80;99.90
29295;DHT22;16305;48.566;8.846;2022-09-09T07:18:39;14.90;99.90
29295;DHT22;16305;48.566;8.846;2022-09-09T07:21:05;15.00;99.90
29295;DHT22;16305;48.566;8.846;2022-09-09T07:23:32;15.10;99.90
29295;DHT22;16305;48.566;8.846;2022-09-09T07:25:58;15.20;99.90
29295;DHT22;16305;48.566;8.846;2022-09-09T07:28:25;15.20;99.90
29295;DHT22;16305;48.566;8.846;2022-09-09T07:30:57;15.30;99.90
29295;DHT22;16305;48.566;8.846;2022-09-09T07:33:24;15.40;99.90
29295;DHT22;16305;48.566;8.846;2022-09-09T07:35:50;15.50;99.90
29295;DHT22;16305;48.566;8.846;2022-09-09T07:38:16;15.60;99.90
29295;DHT22;16305;48.566;8.846;2022-09-09T07:40:42;15.70;99.90
29295;DHT22;16305;48.566;8.846;2022-09-09T07:43:07;15.70;99.90
29295;DHT22;16305;48.566;8.846;2022-09-09T07:45:34;15.70;99.90
29295;DHT22;16305;48.566;8.846;2022-09-09T07:48:01;15.80;99.90
29295;DHT22;16305;48.566;8.846;2022-09-09T07:50:27;15.90;99.90
29295;DHT22;16305;48.566;8.846;2022-09-09T07:52:53;16.00;99.90
29295;DHT22;16305;48.566;8.846;2022-09-09T07:55:19;15.90;99.90
29295;DHT22;16305;48.566;8.846;2022-09-09T07:57:45;15.90;99.90
29295;DHT22;16305;48.566;8.846;2022-09-09T08:00:13;16.00;99.90
29295;DHT22;16305;48.566;8.846;2022-09-09T08:02:40;16.00;99.90
29295;DHT22;16305;48.566;8.846;2022-09-09T08:05:05;16.20;99.90
29295;DHT22;16305;48.566;8.846;2022-09-09T08:07:31;16.20;99.90
29295;DHT22;16305;48.566;8.846;2022-09-09T08:09:56;16.40;99.90
29295;DHT22;16305;48.566;8.846;2022-09-09T08:12:22;16.60;99.90
29295;DHT22;16305;48.566;8.846;2022-09-09T08:14:48;16.60;99.90
29295;DHT22;16305;48.566;8.846;2022-09-09T08:17:14;16.70;99.90
29295;DHT22;16305;48.566;8.846;2022-09-09T08:19:39;16.70;99.90
29295;DHT22;16305;48.566;8.846;2022-09-09T08:22:05;16.80;99.90
29295;DHT22;16305;48.566;8.846;2022-09-09T08:24:30;16.80;99.90
29295;DHT22;16305;48.566;8.846;2022-09-09T08:26:56;17.10;99.90
29295;DHT22;16305;48.566;8.846;2022-09-09T08:29:22;17.30;99.90
29295;DHT22;16305;48.566;8.846;2022-09-09T08:31:53;17.30;99.90
29295;DHT22;16305;48.566;8.846;2022-09-09T08:34:22;17.40;99.90
29295;DHT22;16305;48.566;8.846;2022-09-09T08:36:49;17.60;99.90
29295;DHT22;16305;48.566;8.846;2022-09-09T08:39:16;17.70;99.90
29295;DHT22;16305;48.566;8.846;2022-09-09T08:42:17;17.70;99.90
29295;DHT22;16305;48.566;8.846;2022-09-09T08:53:01;17.40;99.90
29295;DHT22;16305;48.566;8.846;2022-09-09T08:55:54;17.40;99.90
29295;DHT22;16305;48.566;8.846;2022-09-09T08:58:27;17.80;99.90
29295;DHT22;16305;48.566;8.846;2022-09-09T09:09:14;18.20;99.90
29295;DHT22;16305;48.566;8.846;2022-09-09T09:11:55;18.30;99.90
29295;DHT22;16305;48.566;8.846;2022-09-09T09:14:27;18.40;99.90
29295;DHT22;16305;48.566;8.846;2022-09-09T09:19:25;18.60;99.90
29295;DHT22;16305;48.566;8.846;2022-09-09T09:22:04;18.70;99.90
29295;DHT22;16305;48.566;8.846;2022-09-09T09:30:46;19.10;99.90
29295;DHT22;16305;48.566;8.846;2022-09-09T09:33:16;19.00;99.90
29295;DHT22;16305;48.566;8.846;2022-09-09T09:35:43;19.10;99.90
29295;DHT22;16305;48.566;8.846;2022-09-09T09:38:17;19.10;99.90
29295;DHT22;16305;48.566;8.846;2022-09-09T09:43:23;19.50;99.90
29295;DHT22;16305;48.566;8.846;2022-09-09T09:45:49;19.60;99.90
29295;DHT22;16305;48.566;8.846;2022-09-09T09:48:14;19.20;99.90
29295;DHT22;16305;48.566;8.846;2022-09-09T09:50:58;19.10;99.90
29295;DHT22;16305;48.566;8.846;2022-09-09T09:53:32;19.00;99.90
29295;DHT22;16305;48.566;8.846;2022-09-09T09:58:29;19.20;99.90
29295;DHT22;16305;48.566;8.846;2022-09-09T10:00:56;19.30;99.90
29295;DHT22;16305;48.566;8.846;2022-09-09T10:03:33;19.60;99.90
29295;DHT22;16305;48.566;8.846;2022-09-09T10:06:03;19.60;99.90
29295;DHT22;16305;48.566;8.846;2022-09-09T10:08:29;19.80;99.90
29295;DHT22;16305;48.566;8.846;2022-09-09T10:14:11;20.40;99.90
29295;DHT22;16305;48.566;8.846;2022-09-09T10:19:33;19.90;99.90
29295;DHT22;16305;48.566;8.846;2022-09-09T10:22:24;19.80;99.90
29295;DHT22;16305;48.566;8.846;2022-09-09T10:30:23;19.90;99.90
29295;DHT22;16305;48.566;8.846;2022-09-09T10:33:04;19.90;99.90
29295;DHT22;16305;48.566;8.846;2022-09-09T10:35:57;20.10;99.90
29295;DHT22;16305;48.566;8.846;2022-09-09T10:38:40;20.10;99.90
29295;DHT22;16305;48.566;8.846;2022-09-09T10:41:19;20.00;99.90
29295;DHT22;16305;48.566;8.846;2022-09-09T10:47:04;19.40;99.90
29295;DHT22;16305;48.566;8.846;2022-09-09T10:50:06;19.00;99.90
29295;DHT22;16305;48.566;8.846;2022-09-09T10:55:27;17.70;99.90
29295;DHT22;16305;48.566;8.846;2022-09-09T10:58:00;17.20;99.90
29295;DHT22;16305;48.566;8.846;2022-09-09T11:00:40;17.10;99.90
29295;DHT22;16305;48.566;8.846;2022-09-09T11:03:18;16.80;99.90
29295;DHT22;16305;48.566;8.846;2022-09-09T11:06:13;16.40;99.90
29295;DHT22;16305;48.566;8.846;2022-09-09T11:08:40;16.20;99.90
29295;DHT22;16305;48.566;8.846;2022-09-09T11:11:10;15.90;99.90
29295;DHT22;16305;48.566;8.846;2022-09-09T11:14:20;15.80;99.90
29295;DHT22;16305;48.566;8.846;2022-09-09T11:16:59;15.70;99.90
29295;DHT22;16305;48.566;8.846;2022-09-09T11:19:36;15.70;99.90
29295;DHT22;16305;48.566;8.846;2022-09-09T11:22:17;15.60;99.90
29295;DHT22;16305;48.566;8.846;2022-09-09T11:27:32;15.70;99.90
29295;DHT22;16305;48.566;8.846;2022-09-09T11:30:19;15.80;99.90
29295;DHT22;16305;48.566;8.846;2022-09-09T11:38:44;16.20;99.90
29295;DHT22;16305;48.566;8.846;2022-09-09T11:41:10;16.30;99.90
29295;DHT22;16305;48.566;8.846;2022-09-09T11:43:41;16.40;99.90
29295;DHT22;16305;48.566;8.846;2022-09-09T11:46:08;16.60;99.90
29295;DHT22;16305;48.566;8.846;2022-09-09T11:48:45;16.60;99.90
29295;DHT22;16305;48.566;8.846;2022-09-09T11:53:50;17.20;99.90
29295;DHT22;16305;48.566;8.846;2022-09-09T11:59:27;17.50;99.90
29295;DHT22;16305;48.566;8.846;2022-09-09T12:02:00;18.20;99.90
29295;DHT22;16305;48.566;8.846;2022-09-09T12:04:37;18.20;99.90
29295;DHT22;16305;48.566;8.846;2022-09-09T12:09:51;18.00;99.90
29295;DHT22;16305;48.566;8.846;2022-09-09T12:12:30;17.90;99.90
29295;DHT22;16305;48.566;8.846;2022-09-09T12:15:00;18.00;99.90
29295;DHT22;16305;48.566;8.846;2022-09-09T12:17:31;18.00;99.90
29295;DHT22;16305;48.566;8.846;2022-09-09T12:20:21;18.00;99.90
29295;DHT22;16305;48.566;8.846;2022-09-09T12:23:05;18.00;99.90
29295;DHT22;16305;48.566;8.846;2022-09-09T12:28:14;18.00;99.90
29295;DHT22;16305;48.566;8.846;2022-09-09T12:30:54;17.90;99.90
29295;DHT22;16305;48.566;8.846;2022-09-09T12:33:21;17.80;99.90
29295;DHT22;16305;48.566;8.846;2022-09-09T12:35:53;17.90;99.90
29295;DHT22;16305;48.566;8.846;2022-09-09T12:38:34;18.00;99.90
29295;DHT22;16305;48.566;8.846;2022-09-09T12:41:01;18.00;99.90
29295;DHT22;16305;48.566;8.846;2022-09-09T12:43:27;18.20;99.90
29295;DHT22;16305;48.566;8.846;2022-09-09T12:45:59;18.60;99.90
29295;DHT22;16305;48.566;8.846;2022-09-09T12:48:37;19.00;99.90
29295;DHT22;16305;48.566;8.846;2022-09-09T12:51:07;19.50;99.90
29295;DHT22;16305;48.566;8.846;2022-09-09T12:53:41;19.80;99.90
29295;DHT22;16305;48.566;8.846;2022-09-09T12:56:08;20.10;99.90
29295;DHT22;16305;48.566;8.846;2022-09-09T13:03:43;20.30;99.90
29295;DHT22;16305;48.566;8.846;2022-09-09T13:06:13;20.00;99.90
29295;DHT22;16305;48.566;8.846;2022-09-09T13:08:42;19.40;99.90
29295;DHT22;16305;48.566;8.846;2022-09-09T13:11:14;19.30;99.90
29295;DHT22;16305;48.566;8.846;2022-09-09T13:13:42;19.20;99.90
29295;DHT22;16305;48.566;8.846;2022-09-09T13:16:29;19.30;99.90
29295;DHT22;16305;48.566;8.846;2022-09-09T13:18:58;20.10;99.90
29295;DHT22;16305;48.566;8.846;2022-09-09T13:21:34;20.40;99.90
29295;DHT22;16305;48.566;8.846;2022-09-09T13:24:01;20.50;99.90
29295;DHT22;16305;48.566;8.846;2022-09-09T13:26:29;20.70;99.90
29295;DHT22;16305;48.566;8.846;2022-09-09T13:29:07;21.30;99.90
29295;DHT22;16305;48.566;8.846;2022-09-09T13:31:35;21.20;99.90
29295;DHT22;16305;48.566;8.846;2022-09-09T13:34:22;20.90;99.90
29295;DHT22;16305;48.566;8.846;2022-09-09T13:36:52;21.00;99.90
29295;DHT22;16305;48.566;8.846;2022-09-09T13:39:19;21.30;99.90
29295;DHT22;16305;48.566;8.846;2022-09-09T13:41:46;21.30;99.90
29295;DHT22;16305;48.566;8.846;2022-09-09T13:44:23;21.60;99.90
29295;DHT22;16305;48.566;8.846;2022-09-09T13:47:04;21.70;99.90
29295;DHT22;16305;48.566;8.846;2022-09-09T13:49:30;21.90;99.90
29295;DHT22;16305;48.566;8.846;2022-09-09T13:52:16;22.20;99.90
29295;DHT22;16305;48.566;8.846;2022-09-09T13:54:47;22.30;99.90
29295;DHT22;16305;48.566;8.846;2022-09-09T13:57:18;22.20;99.90
29295;DHT22;16305;48.566;8.846;2022-09-09T13:59:45;22.40;99.90
29295;DHT22;16305;48.566;8.846;2022-09-09T14:02:11;22.00;99.90
29295;DHT22;16305;48.566;8.846;2022-09-09T14:04:37;22.10;99.90
29295;DHT22;16305;48.566;8.846;2022-09-09T14:07:03;22.20;99.90
29295;DHT22;16305;48.566;8.846;2022-09-09T14:09:29;22.40;99.90
29295;DHT22;16305;48.566;8.846;2022-09-09T14:11:54;22.90;99.90
29295;DHT22;16305;48.566;8.846;2022-09-09T14:14:22;22.90;99.90
29295;DHT22;16305;48.566;8.846;2022-09-09T14:16:48;22.60;99.90
29295;DHT22;16305;48.566;8.846;2022-09-09T14:19:14;22.90;99.90
29295;DHT22;16305;48.566;8.846;2022-09-09T14:21:39;22.90;99.90
29295;DHT22;16305;48.566;8.846;2022-09-09T14:24:05;22.50;99.90
29295;DHT22;16305;48.566;8.846;2022-09-09T14:26:31;22.60;99.90
29295;DHT22;16305;48.566;8.846;2022-09-09T14:28:57;22.40;99.90
29295;DHT22;16305;48.566;8.846;2022-09-09T14:31:23;22.30;99.90
29295;DHT22;16305;48.566;8.846;2022-09-09T14:33:49;22.00;99.90
29295;DHT22;16305;48.566;8.846;2022-09-09T14:36:16;22.10;99.90
29295;DHT22;16305;48.566;8.846;2022-09-09T14:38:42;22.20;99.90
29295;DHT22;16305;48.566;8.846;2022-09-09T14:41:10;22.80;99.90
29295;DHT22;16305;48.566;8.846;2022-09-09T14:43:38;23.00;99.90
29295;DHT22;16305;48.566;8.846;2022-09-09T14:46:05;22.80;99.90
29295;DHT22;16305;48.566;8.846;2022-09-09T14:48:31;22.40;99.90
29295;DHT22;16305;48.566;8.846;2022-09-09T14:51:05;22.50;99.90
29295;DHT22;16305;48.566;8.846;2022-09-09T14:53:30;22.30;99.90
29295;DHT22;16305;48.566;8.846;2022-09-09T14:56:06;22.60;99.90
29295;DHT22;16305;48.566;8.846;2022-09-09T14:58:32;22.90;99.90
29295;DHT22;16305;48.566;8.846;2022-09-09T15:01:06;22.50;99.90
29295;DHT22;16305;48.566;8.846;2022-09-09T15:03:32;22.40;99.90
29295;DHT22;16305;48.566;8.846;2022-09-09T15:05:57;22.70;99.90
29295;DHT22;16305;48.566;8.846;2022-09-09T15:08:26;22.50;99.90
29295;DHT22;16305;48.566;8.846;2022-09-09T15:10:59;22.60;99.90
29295;DHT22;16305;48.566;8.846;2022-09-09T15:13:25;22.60;99.90
29295;DHT22;16305;48.566;8.846;2022-09-09T15:15:51;22.50;99.90
29295;DHT22;16305;48.566;8.846;2022-09-09T15:18:16;21.80;99.90
29295;DHT22;16305;48.566;8.846;2022-09-09T15:20:45;21.10;99.90
29295;DHT22;16305;48.566;8.846;2022-09-09T15:23:11;20.60;99.90
29295;DHT22;16305;48.566;8.846;2022-09-09T15:25:37;20.40;99.90
29295;DHT22;16305;48.566;8.846;2022-09-09T15:28:02;20.20;99.90
29295;DHT22;16305;48.566;8.846;2022-09-09T15:30:28;20.10;99.90
29295;DHT22;16305;48.566;8.846;2022-09-09T15:32:53;20.10;99.90
29295;DHT22;16305;48.566;8.846;2022-09-09T15:35:20;20.00;99.90
29295;DHT22;16305;48.566;8.846;2022-09-09T15:37:45;20.00;99.90
29295;DHT22;16305;48.566;8.846;2022-09-09T15:40:11;20.00;99.90
29295;DHT22;16305;48.566;8.846;2022-09-09T15:42:36;20.00;99.90
29295;DHT22;16305;48.566;8.846;2022-09-09T15:45:03;20.00;99.90
29295;DHT22;16305;48.566;8.846;2022-09-09T15:47:30;19.80;99.90
29295;DHT22;16305;48.566;8.846;2022-09-09T15:49:55;19.90;99.90
29295;DHT22;16305;48.566;8.846;2022-09-09T15:52:21;20.10;99.90
29295;DHT22;16305;48.566;8.846;2022-09-09T15:54:46;20.40;99.90
29295;DHT22;16305;48.566;8.846;2022-09-09T15:57:14;20.40;99.90
29295;DHT22;16305;48.566;8.846;2022-09-09T15:59:40;20.10;99.90
29295;DHT22;16305;48.566;8.846;2022-09-09T16:02:06;19.80;99.90
29295;DHT22;16305;48.566;8.846;2022-09-09T16:04:31;19.70;99.90
29295;DHT22;16305;48.566;8.846;2022-09-09T16:07:02;19.60;99.90
29295;DHT22;16305;48.566;8.846;2022-09-09T16:09:29;19.40;99.90
29295;DHT22;16305;48.566;8.846;2022-09-09T16:11:56;19.40;99.90
29295;DHT22;16305;48.566;8.846;2022-09-09T16:14:23;19.30;99.90
29295;DHT22;16305;48.566;8.846;2022-09-09T16:16:50;19.20;99.90
29295;DHT22;16305;48.566;8.846;2022-09-09T16:19:15;18.90;99.90
29295;DHT22;16305;48.566;8.846;2022-09-09T16:21:46;18.50;99.90
29295;DHT22;16305;48.566;8.846;2022-09-09T16:24:14;18.40;99.90
29295;DHT22;16305;48.566;8.846;2022-09-09T16:26:42;18.30;99.90
29295;DHT22;16305;48.566;8.846;2022-09-09T16:29:10;18.40;99.90
29295;DHT22;16305;48.566;8.846;2022-09-09T16:31:36;18.60;99.90
29295;DHT22;16305;48.566;8.846;2022-09-09T16:34:02;18.90;99.90
29295;DHT22;16305;48.566;8.846;2022-09-09T16:36:33;19.40;99.90
29295;DHT22;16305;48.566;8.846;2022-09-09T16:39:05;19.60;99.90
29295;DHT22;16305;48.566;8.846;2022-09-09T16:41:31;19.50;99.90
29295;DHT22;16305;48.566;8.846;2022-09-09T16:44:02;19.20;99.90
29295;DHT22;16305;48.566;8.846;2022-09-09T16:46:29;19.00;99.90
29295;DHT22;16305;48.566;8.846;2022-09-09T16:48:57;18.60;99.90
29295;DHT22;16305;48.566;8.846;2022-09-09T16:51:29;18.60;99.90
29295;DHT22;16305;48.566;8.846;2022-09-09T16:53:55;18.40;99.90
29295;DHT22;16305;48.566;8.846;2022-09-09T16:56:24;18.40;99.90
29295;DHT22;16305;48.566;8.846;2022-09-09T16:58:56;18.50;99.90
29295;DHT22;16305;48.566;8.846;2022-09-09T17:01:26;18.70;99.90
29295;DHT22;16305;48.566;8.846;2022-09-09T17:03:53;19.10;99.90
29295;DHT22;16305;48.566;8.846;2022-09-09T17:06:19;19.20;99.90
29295;DHT22;16305;48.566;8.846;2022-09-09T17:08:44;18.70;99.90
29295;DHT22;16305;48.566;8.846;2022-09-09T17:11:18;18.40;99.90
29295;DHT22;16305;48.566;8.846;2022-09-09T17:13:45;18.20;99.90
29295;DHT22;16305;48.566;8.846;2022-09-09T17:16:12;18.00;99.90
29295;DHT22;16305;48.566;8.846;2022-09-09T17:18:38;17.90;99.90
29295;DHT22;16305;48.566;8.846;2022-09-09T17:21:09;17.80;99.90
29295;DHT22;16305;48.566;8.846;2022-09-09T17:23:35;17.70;99.90
29295;DHT22;16305;48.566;8.846;2022-09-09T17:26:09;17.70;99.90
29295;DHT22;16305;48.566;8.846;2022-09-09T17:28:39;17.60;99.90
29295;DHT22;16305;48.566;8.846;2022-09-09T17:31:10;17.50;99.90
29295;DHT22;16305;48.566;8.846;2022-09-09T17:33:37;17.40;99.90
29295;DHT22;16305;48.566;8.846;2022-09-09T17:38:53;17.30;99.90
29295;DHT22;16305;48.566;8.846;2022-09-09T17:41:24;17.20;99.90
29295;DHT22;16305;48.566;8.846;2022-09-09T17:43:51;17.20;99.90
29295;DHT22;16305;48.566;8.846;2022-09-09T17:46:19;17.20;99.90
29295;DHT22;16305;48.566;8.846;2022-09-09T17:48:49;17.10;99.90